Ashland, ME

6:32 AM EST on March 04, 2015 (GMT -0500)
Northern Aroostook Regional | Change Station
CLOSE
Current Station
Airport
Location: Frenchville,
Elevation: 988 ft
Nearby Weather Stations
Active Advisory: Winter Weather Advisory Active Notice: Public Information Statement

Elev 988 ft 47.29 °N, 68.31 °W | Updated 39 minutes ago

Snow
Snow
18 °F
Feels Like 10 °F
N
6
Wind Variable Wind from South

Today
High -- | Low -- °F
--% Chance of Precip.
Yesterday
High -- | Low -- °F
Precip. -- in
6:08 AM 5:23 PM
Waxing Gibbous, 99% visible
Pressure 29.47 in
Visibility 4.0 miles
Clouds Scattered Clouds 2500 ft
Mostly Cloudy 3400 ft
Overcast 5000 ft
Windchill 10 °F
Dew Point 15 °F
Humidity 88%
Rainfall 0.01 in
Snow Depth Not available.
UV 0 out of 12
Pollen .30 out of 12
Air Quality Not available.
Flu Activity Not available.
METAR KFVE 041053Z AUTO 17005KT 4SM -SN BR SCT025 BKN034 OVC050 M08/M09 A2942 RMK AO2 SLP978 P0000 T10781094 $

More Conditions Fewer Conditions

Pressure 29.47 in
Visibility 4.0 miles
Clouds Scattered Clouds 2500 ft
Mostly Cloudy 3400 ft
Overcast 5000 ft
Windchill 10 °F
Dew Point 15 °F
Humidity 88%
Rainfall 0.01 in
Snow Depth Not available.
UV 0 out of 12
Pollen .30 out of 12
Air Quality Not available.
Flu Activity Not available.
METAR KFVE 041053Z AUTO 17005KT 4SM -SN BR SCT025 BKN034 OVC050 M08/M09 A2942 RMK AO2 SLP978 P0000 T10781094 $

More Conditions Fewer Conditions

10-Day Weather Forecast

Almanac

Astronomy

Mar. 04, 2015 Rise Set
Actual Time
Civil Twilight
Nautical Twilight
Astronomical Twilight
Moon
Length of Visible Light
Length of Day
Tomorrow will be .
, % of the Moon is Illuminated

Today's Extremes

State Highs State Lows

Community

WunderPhotos

Upload Photos

1,802,435 photos uploaded!

WunderBlogs® & News

Nearby

Air Quality

  Air Quality AQ Index Pollutant
Not available.

Snow Depth

Station Depth Elevation

Earthquake Activity

City Distance Mag. Time & Date
Minimum magnitude displayed is 2.5.

Coastal Water Temperatures

Place Temperature

Nearby Weather Stations

Winter Weather Advisory
Statement as of 6:01 AM EST on March 04, 2015

... Winter Weather Advisory remains in effect until 10 am EST this
morning...

* accumulations... snow accumulation of 5 to 7 inches.

* Locations... northern Aroostook... northern and central
Piscataquis and northern Somerset counties.

* Timing... early this morning.

* Impacts... snow will lead to snow covered roads which could
lead to some travel difficulties.

* Winds... southwest 5 to 10 mph with gusts up to 20 mph.

* Temperatures... in the upper 20s.

Precautionary/preparedness actions...

A Winter Weather Advisory for snow means that periods of snow
will cause primarily travel difficulties. Be prepared for snow
covered roads and limited visibilities... and use caution while
driving.



Mcb